Weather at Vatukoula Airport

Public forecast

Using degrees Celsius for public forecast. Weather courtesy of forecast.io.

Closest aviation weather report (METAR) to Vatukoula Airport

Closest report is Nadi International Airport, 27.5 nm (50.9 km) SW. Retrieved 2022/01/17 00:00 UTC (45 minutes ago):

NFFN 170000Z 29007KT 9999 SCT028TCU SCT048 30/23 Q1005 NOSIG

Closest aviation forecast (TAF) to Vatukoula Airport

Closest forecast is Nadi International Airport, 27.5 nm (50.9 km) SW. Retrieved 2022-01-17 00:00 UTC (45 minutes ago):

TAF NFFN 162321Z 1700/1724 13008KT 9999 SCT028 SCT048 PROB40 TEMPO 1702/1718 5000 TSRA BKN015 FEW018CB